Tiempo atmosférico en la estación meteorológica de Binissalem, Illes Balears (105 m.)



Fecha
DESCASC
Temp. máxima en grados centígrados (hora)
DESCASC
Temp. mínima en grados centígrados (hora)
DESCASC
Temp. media en grados centígrados
DESCASC
Racha de viento máxima en m/sg (hora)
DESCASC
Velocidad máxima media en intervalos de 10 minutos(hora)
DESCASC
Precipitaciones diarias en mm
DESCASC
Precipitaciones de 00:00 a 06:00 en mm
DESCASC
Precipitaciones de 06:00 a 12:00 en mm
DESCASC
Precipitaciones de 12:00 a 18:00 en mm
DESCASC
Precipitaciones de 18:00 a 24:00 en mm
DESCASC
22-11-2020 17.2 (13:50) 4.3 (04:50) 10.8 -- (--) -- (--) 0 0 0 0 0
21-11-2020 16.2 (13:50) 7.4 (23:40) 11.8 11.39 (10:40) 6.94 (11:40) 0 0 0 0 0
20-11-2020 18 (14:10) 7.3 (20:20) 12.7 10.83 (23:00) 6.94 (22:00) 0.2 0 0.2 0 0
19-11-2020 23.1 (15:20) 7.2 (00:00) 15.2 6.11 (16:30) 3.33 (16:50) 0 0 0 0 0
18-11-2020 22 (14:00) 5.6 (00:00) 13.8 -- (--) -- (--) 0 0 0 0 0
17-11-2020 22.5 (14:30) 8.5 (00:00) 15.5 3.89 (13:20) 2.22 (13:30) 0 0 0 0 0
16-11-2020 20.8 (12:40) 12.2 (00:00) 16.5 10.28 (10:00) 6.11 (11:50) 0 0 0 0 0
15-11-2020 -- (--) -- (--) -- -- (--) -- (--) 0 0 0 0 0
14-11-2020 -- (--) -- (--) -- -- (--) -- (--) 0 0 0 0 0
13-11-2020 22.8 (14:50) 9.7 (00:00) 16.2 5.83 (12:20) 3.06 (14:50) 0 0 0 0 0
12-11-2020 22.5 (13:30) 7.6 (00:00) 15 5.28 (14:00) 2.78 (16:20) 0 0 0 0 0
11-11-2020 21.9 (14:00) 6.8 (00:00) 14.3 5.56 (14:50) 2.78 (11:40) 0 0 0 0 0
10-11-2020 23.1 (14:00) 8 (00:00) 15.6 6.39 (14:50) 3.89 (14:50) 0 0 0 0 0
09-11-2020 24.2 (14:30) 10.8 (00:00) 17.5 4.17 (15:20) 2.5 (15:00) 0.2 0 0.2 0 0
08-11-2020 23 (14:10) 9.2 (00:00) 16.1 5 (13:50) 3.61 (15:50) 0 0 0 0 0
07-11-2020 23.2 (15:20) 13.8 (00:00) 18.5 11.67 (09:20) 6.94 (09:30) 8.2 0 7.4 0.8 0
06-11-2020 23.9 (14:40) 18.4 (00:00) 21.1 7.5 (16:30) 5 (16:30) 0 0 0 0 0
05-11-2020 20.6 (12:40) 15.2 (00:00) 17.9 9.72 (12:50) 5.56 (09:40) 0 0 0 0 0
04-11-2020 -- (--) -- (--) -- -- (--) -- (--) 0.4 0 0.4 0 0
03-11-2020 23.7 (14:10) 9.2 (00:00) 16.5 6.94 (19:10) 4.44 (19:20) 0 0 0 0 0
02-11-2020 22.2 (14:00) 10.5 (00:00) 16.4 6.67 (10:50) 4.72 (10:10) 0.2 0 0.2 0 0
01-11-2020 22.1 (14:10) 6.8 (00:00) 14.5 6.94 (11:30) 4.17 (10:50) 0 0 0 0 0
31-10-2020 23.4 (13:50) 7 (00:00) 15.2 6.39 (14:10) 4.17 (16:30) 0 0 0 0 0
30-10-2020 23.4 (12:50) 7.2 (00:00) 15.3 6.39 (14:00) 4.17 (14:20) 0 0 0 0 0
29-10-2020 23.4 (14:40) 7.8 (00:00) 15.6 6.39 (15:50) 4.17 (15:50) 0 0 0 0 0
28-10-2020 -- (--) -- (--) -- -- (--) -- (--) -- 0 0 0 --
27-10-2020 -- (--) -- (--) -- -- (--) -- (--) -- 0 0 0 --
26-10-2020 18.4 (01:00) 15 (00:00) 16.7 13.33 (12:20) 8.06 (12:20) 0.6 0 0.6 0 0

Gráficas

Temp. máximas Temp. mínimas Temp. medias Precipitaciones Rachas de viento máximas Velocidades máximas media en intervalos de 10 minutos

Datos horarios

Fecha y hora oficial Temperatura (ºC) Velocidad del viento (km/h) Dirección del viento Racha (km/h) Dirección de racha Precipitación (mm) Presión (hPa) Tendencia (hPa) Humedad (%)
2020-11-24 23:00:00 11.9 3 Noroeste 6 Oeste 0 -- -- 81
2020-11-24 22:00:00 11.9 2 Noroeste 5 Noroeste 0 -- -- 79
2020-11-24 21:00:00 11.8 3 Noroeste 5 Noroeste 0 -- -- 78
2020-11-24 20:00:00 11.4 2 Noroeste 7 Noroeste 0 -- -- 78
2020-11-24 19:00:00 10.7 5 Norte 6 Noroeste 0 -- -- 76
2020-11-24 18:00:00 12.6 4 Sudoeste 14 Sudoeste 0 -- -- 69
2020-11-24 17:00:00 15.3 9 Sudoeste 18 Sudoeste 0 -- -- 61
2020-11-24 16:00:00 17 14 Sudoeste 21 Sudoeste 0 -- -- 57
2020-11-24 15:00:00 17.8 11 Sudoeste 19 Sudoeste 0 -- -- 55
2020-11-24 14:00:00 17.4 9 Sudoeste 23 Sudoeste 0 -- -- 57
2020-11-24 13:00:00 16.6 10 Sudoeste 18 Sudoeste 0 -- -- 57
2020-11-24 12:00:00 16.5 3 Sudoeste 14 Sudoeste 0 -- -- 59
2020-11-24 11:00:00 16.3 2 Sur 4 Sudeste 0 -- -- 68
2020-11-24 10:00:00 13 0 Calma 3 Sur 0 -- -- 88
2020-11-24 09:00:00 7.5 0 Calma 4 Noroeste 0 -- -- 95
2020-11-24 08:00:00 2.9 0 Calma 4 Noroeste 0 -- -- 95
2020-11-24 07:00:00 3.3 3 Noroeste -- -- 0 -- -- 96
2020-11-24 06:00:00 3.3 2 Oeste 4 Noroeste 0 -- -- 96
2020-11-24 05:00:00 3.1 2 Noroeste 4 Noroeste 0 -- -- 95
2020-11-24 04:00:00 3.4 0 Calma 3 Sudoeste 0 -- -- 94
2020-11-24 03:00:00 3.6 2 Sudoeste 4 Sudoeste 0 -- -- 93
2020-11-24 02:00:00 3.9 3 Noroeste 4 Oeste 0 -- -- 93
2020-11-24 01:00:00 4.3 3 Oeste 5 Oeste 0 -- -- 93
2020-11-24 00:00:00 4.8 4 Sudoeste 5 Sudoeste 0 -- -- 91
2020-11-23 23:00:00 6.1 2 Oeste 8 Noroeste 0 -- -- 90
2020-11-23 22:00:00 7.4 6 Noroeste 9 Noroeste 0 -- -- 89
2020-11-23 21:00:00 7.7 7 Noroeste 9 Noroeste 0 -- -- 87
2020-11-23 20:00:00 8.9 7 Noroeste 9 Noroeste 0 -- -- 83
2020-11-23 19:00:00 10.2 3 Nordeste 5 Este 0 -- -- 77
2020-11-23 18:00:00 12.8 4 Este 11 Nordeste 0 -- -- 69
2020-11-23 17:00:00 14.8 6 Este 13 Este 0 -- -- 63
2020-11-23 16:00:00 15.6 7 Nordeste 16 Nordeste 0 -- -- 59
2020-11-23 15:00:00 18.6 8 Nordeste 16 Nordeste 0 -- -- 49
2020-11-23 14:00:00 18.5 6 Este 26 Sudeste 0 -- -- 50
2020-11-23 13:00:00 17.2 5 Sudeste 14 Este 0 -- -- 52
2020-11-23 12:00:00 17.2 6 Este 16 Sudeste 0 -- -- 51
2020-11-23 11:00:00 16.3 8 Este 14 Este 0 -- -- 58
2020-11-23 10:00:00 13 2 Sur 4 Sudoeste 0 -- -- 76
2020-11-23 09:00:00 7.8 2 Sudoeste 5 Sur 0 -- -- 93
2020-11-23 08:00:00 2.7 3 Sudoeste 4 Sudoeste 0 -- -- 94
2020-11-23 07:00:00 2.8 3 Sudoeste 5 Sudoeste 0 -- -- 94
2020-11-23 06:00:00 3.6 3 Oeste 5 Sudoeste 0 -- -- 93
2020-11-23 05:00:00 2.8 3 Oeste 4 Oeste 0 -- -- 93
2020-11-23 04:00:00 3.2 3 Sudoeste 5 Noroeste 0 -- -- 92
2020-11-23 03:00:00 3.6 3 Oeste 4 Oeste 0 -- -- 91
2020-11-23 02:00:00 4.9 0 Calma 7 Noroeste 0 -- -- 90
2020-11-23 01:00:00 5.6 3 Oeste 10 Noroeste 0 -- -- 91
2020-11-23 00:00:00 5.7 5 Oeste 8 Oeste 0 -- -- 88
2020-11-22 23:00:00 5.6 5 Sudoeste 13 Sudeste 0 -- -- 87
2020-11-22 22:00:00 6.6 0 Calma 5 Noroeste 0 -- -- 84
2020-11-22 21:00:00 8.7 6 Noroeste 11 Norte 0 -- -- 79
2020-11-22 20:00:00 8.8 8 Noroeste 12 Noroeste 0 -- -- 78
2020-11-22 19:00:00 10 4 Norte 12 Nordeste 0 -- -- 73
2020-11-22 18:00:00 -- -- -- -- -- -- -- -- --
2020-11-22 17:00:00 14.8 13 Nordeste 26 Nordeste 0 -- -- 58
2020-11-22 16:00:00 16.7 12 Nordeste 28 Nordeste 0 -- -- 51
2020-11-22 15:00:00 16.7 17 Nordeste 30 Nordeste 0 -- -- 51
2020-11-22 14:00:00 17.2 15 Nordeste 30 Nordeste 0 -- -- 52
2020-11-22 13:00:00 17.1 14 Nordeste 32 Nordeste 0 -- -- 53
2020-11-22 12:00:00 16.3 20 Nordeste 35 Nordeste 0 -- -- 56
2020-11-22 11:00:00 15.5 18 Nordeste 32 Nordeste 0 -- -- 60
2020-11-22 10:00:00 14.6 15 Nordeste 27 Nordeste 0 -- -- 64
2020-11-22 09:00:00 11.4 5 Norte 10 Norte 0 -- -- 82
2020-11-22 08:00:00 6.6 7 Norte 11 Norte 0 -- -- 86
2020-11-22 07:00:00 7.3 9 Norte 10 Norte 0 -- -- 87
2020-11-22 06:00:00 5.9 7 Norte 11 Norte 0 -- -- 88
2020-11-22 05:00:00 4.6 5 Norte 9 Norte 0 -- -- 89
2020-11-22 04:00:00 4.5 5 Oeste 7 Oeste 0 -- -- 89
2020-11-22 03:00:00 6.8 3 Oeste 10 Noroeste 0 -- -- 84
2020-11-22 02:00:00 7.2 6 Noroeste 10 Norte 0 -- -- 83
2020-11-22 01:00:00 8 8 Noroeste 10 Noroeste 0 -- -- 83
2020-11-22 00:00:00 8.2 8 Noroeste 12 Norte 0 -- -- 84
2020-11-21 23:00:00 7.6 7 Noroeste 14 Norte 0 -- -- 83
2020-11-21 22:00:00 8 7 Norte 9 Norte 0 -- -- 83
2020-11-21 21:00:00 9.3 6 Norte 8 Norte 0 -- -- 79
2020-11-21 20:00:00 10.4 6 Norte 10 Nordeste 0 -- -- 76
2020-11-21 19:00:00 10.9 6 Nordeste 9 Nordeste 0 -- -- 74
2020-11-21 18:00:00 12 5 Nordeste 20 Nordeste 0 -- -- 71
2020-11-21 17:00:00 13.8 13 Nordeste 29 Nordeste 0 -- -- 66
2020-11-21 16:00:00 14.7 18 Nordeste 30 Nordeste 0 -- -- 63
2020-11-21 15:00:00 15.4 19 Nordeste 37 Nordeste 0 -- -- 57
2020-11-21 14:00:00 16 22 Nordeste 36 Nordeste 0 -- -- 48
2020-11-21 13:00:00 15.5 22 Nordeste 39 Norte 0 -- -- 46
2020-11-21 12:00:00 15.2 25 Nordeste 39 Norte 0 -- -- 48
2020-11-21 11:00:00 14.8 19 Nordeste 41 Nordeste 0 -- -- 53
2020-11-21 10:00:00 14.1 21 Nordeste 35 Nordeste 0 -- -- 55
2020-11-21 09:00:00 12.6 14 Nordeste 24 Nordeste 0 -- -- 62
2020-11-21 08:00:00 10.1 14 Nordeste 23 Nordeste 0 -- -- 65
2020-11-21 07:00:00 10.3 11 Nordeste 29 Nordeste 0 -- -- 63
2020-11-21 06:00:00 11.6 21 Nordeste 32 Nordeste 0 -- -- 58
2020-11-21 05:00:00 10.5 10 Este 32 Nordeste 0 -- -- 63
2020-11-21 04:00:00 11.4 16 Nordeste 33 Este 0 -- -- 62
2020-11-21 03:00:00 9.9 8 Este 18 Nordeste 0 -- -- 68
2020-11-21 02:00:00 10.6 13 Nordeste 26 Nordeste 0 -- -- 65
2020-11-21 01:00:00 11.4 18 Nordeste 29 Nordeste 0 -- -- 61
2020-11-21 00:00:00 11.9 19 Nordeste 35 Nordeste 0 -- -- 57
2020-11-20 23:00:00 12.5 19 Nordeste 39 Nordeste 0 -- -- 55
2020-11-20 22:00:00 13.1 25 Nordeste 37 Nordeste 0 -- -- 53
2020-11-20 21:00:00 7.4 2 Oeste 6 Oeste 0 -- -- 74
2020-11-20 20:00:00 7.8 2 Norte 4 Norte 0 -- -- 70
2020-11-20 19:00:00 8.7 3 Sudoeste 11 Nordeste 0 -- -- 66
2020-11-20 18:00:00 11.8 6 Nordeste 17 Nordeste 0 -- -- 52
2020-11-20 17:00:00 16 10 Nordeste 23 Nordeste 0 -- -- 54
2020-11-20 16:00:00 17 12 Nordeste 26 Norte 0 -- -- 55
2020-11-20 15:00:00 17.9 17 Norte 29 Nordeste 0 -- -- 56
2020-11-20 14:00:00 17.5 5 Oeste 21 Norte 0 -- -- 53
2020-11-20 13:00:00 16.9 12 Nordeste 29 Nordeste 0 -- -- 56
2020-11-20 12:00:00 16.5 12 Norte 23 Nordeste 0 -- -- 67
2020-11-20 11:00:00 14.6 16 Nordeste 29 Nordeste 0 -- -- 76
2020-11-20 10:00:00 14 11 Nordeste 20 Nordeste 0.2 -- -- 79
2020-11-20 09:00:00 13.3 8 Nordeste 21 Nordeste 0 -- -- 83
2020-11-20 08:00:00 14 12 Nordeste 28 Nordeste 0 -- -- 79
2020-11-20 07:00:00 13.6 4 Nordeste 10 Nordeste 0 -- -- 80
2020-11-20 06:00:00 14.1 6 Nordeste 15 Nordeste 0 -- -- 78
2020-11-20 05:00:00 13.8 4 Nordeste 9 Nordeste 0 -- -- 79
2020-11-20 04:00:00 13.7 3 Nordeste 9 Nordeste 0 -- -- 83
2020-11-20 03:00:00 13.5 5 Nordeste 13 Nordeste 0 -- -- 88
2020-11-20 02:00:00 13.2 6 Este 15 Este 0 -- -- 92
2020-11-20 01:00:00 11.5 3 Sur 10 Sudeste 0 -- -- 93
2020-11-20 00:00:00 11.3 0 Calma 7 Oeste 0 -- -- 91
2020-11-19 23:00:00 12.7 6 Noroeste 9 Norte 0 -- -- 87
2020-11-19 22:00:00 14.8 6 Oeste 11 Sudoeste 0 -- -- 81
2020-11-19 21:00:00 14 4 Oeste 7 Noroeste 0 -- -- 85
2020-11-19 20:00:00 13.2 8 Noroeste 9 Noroeste 0 -- -- 86
2020-11-19 19:00:00 14.2 8 Noroeste 9 Noroeste 0 -- -- 80
2020-11-19 18:00:00 16.5 3 Nordeste 17 Este 0 -- -- 72
2020-11-19 17:00:00 20.5 8 Este 22 Este 0 -- -- 60
2020-11-19 16:00:00 22.9 7 Este 15 Este 0 -- -- 52
2020-11-19 15:00:00 22.6 6 Este 19 Este 0 -- -- 51
2020-11-19 14:00:00 21.8 4 Nordeste 15 Este 0 -- -- 56
2020-11-19 13:00:00 21.4 3 Sudeste 10 Sudeste 0 -- -- 56
2020-11-19 12:00:00 19.5 5 Oeste 12 Sur 0 -- -- 63
2020-11-19 11:00:00 18.9 3 Sudoeste 8 Sur 0 -- -- 68
2020-11-19 10:00:00 16.3 0 Calma 4 Sur 0 -- -- 92
2020-11-19 09:00:00 11.8 0 Calma 4 Noroeste 0 -- -- 95
2020-11-19 08:00:00 7.7 3 Oeste 5 Sudoeste 0 -- -- 97
2020-11-19 07:00:00 8 3 Noroeste 6 Oeste 0 -- -- 96
2020-11-19 06:00:00 9.2 4 Oeste 6 Sudoeste 0 -- -- 96
2020-11-19 05:00:00 8.3 3 Sudoeste 4 Sudoeste 0 -- -- 97
2020-11-19 04:00:00 7.6 0 Calma 6 Sudoeste 0 -- -- 97
2020-11-19 03:00:00 7.6 3 Sur 6 Sudoeste 0 -- -- 96
2020-11-19 02:00:00 7.8 3 Oeste 5 Oeste 0 -- -- 96
2020-11-19 01:00:00 8 3 Oeste 5 Oeste 0 -- -- 94
2020-11-19 00:00:00 8.7 5 Noroeste 6 Noroeste 0 -- -- 95
2020-11-18 23:00:00 9 3 Noroeste 6 Noroeste 0 -- -- 93
2020-11-18 22:00:00 10.2 4 Noroeste 5 Norte 0 -- -- 94
2020-11-18 21:00:00 11.3 3 Noroeste 8 Norte 0 -- -- 92
2020-11-18 20:00:00 11.9 5 Norte 7 Norte 0 -- -- 89
2020-11-18 19:00:00 -- -- -- -- -- -- -- -- --
2020-11-18 18:00:00 15.7 4 Nordeste 11 Este 0 -- -- 75
2020-11-18 17:00:00 19.7 4 Nordeste 9 Este 0 -- -- 64
2020-11-18 16:00:00 21.3 5 Nordeste 12 Sur 0 -- -- 56
2020-11-18 15:00:00 21.7 6 Este 14 Este 0 -- -- 48
2020-11-18 14:00:00 22 5 Nordeste 16 Este 0 -- -- 49
2020-11-18 13:00:00 21 5 Este 15 Este 0 -- -- 52
2020-11-18 12:00:00 19.9 4 Nordeste 10 Sudeste 0 -- -- 55
2020-11-18 11:00:00 18 4 Este 9 Sudeste 0 -- -- 70
2020-11-18 10:00:00 14.8 0 Calma 4 Este 0 -- -- 88
2020-11-18 09:00:00 10.6 2 Sur 5 Noroeste 0 -- -- 95
2020-11-18 08:00:00 5.9 5 Noroeste 8 Sur 0 -- -- 97
2020-11-18 07:00:00 6.6 0 Calma 9 Noroeste 0 -- -- 96
2020-11-18 06:00:00 5.9 0 Calma 4 Sudoeste 0 -- -- 97
2020-11-18 05:00:00 6.4 0 Calma 6 Oeste 0 -- -- 96
2020-11-18 04:00:00 6.4 4 Oeste 6 Sudoeste 0 -- -- 96
2020-11-18 03:00:00 6.9 4 Noroeste 5 Noroeste 0 -- -- 96
2020-11-18 02:00:00 8.5 0 Calma 8 Noroeste 0 -- -- 95
2020-11-18 01:00:00 8.2 0 Calma 5 Sudoeste 0 -- -- 94
2020-11-18 00:00:00 9.3 4 Noroeste 6 Noroeste 0 -- -- 94
2020-11-17 23:00:00 9.5 6 Noroeste 8 Noroeste 0 -- -- 93
2020-11-17 22:00:00 10.8 -- -- -- -- 0 -- -- 92
2020-11-17 21:00:00 11.8 3 Noroeste 8 Oeste 0 -- -- 89
2020-11-17 20:00:00 12.5 3 Sudoeste 10 Oeste 0 -- -- 87
2020-11-17 19:00:00 13.8 5 Sur 8 Sur 0 -- -- 80
2020-11-17 18:00:00 16.1 7 Sur 9 Sur 0 -- -- 72
2020-11-17 17:00:00 20.3 3 Sudoeste 13 Sudoeste 0 -- -- 58
2020-11-17 16:00:00 21.2 6 Norte 13 Noroeste 0 -- -- 54
2020-11-17 15:00:00 20.9 5 Este 13 Este 0 -- -- 54
2020-11-17 14:00:00 21.9 6 Este 14 Este 0 -- -- 53
2020-11-17 13:00:00 20.4 6 Sudeste 14 Sudeste 0 -- -- 58
2020-11-17 12:00:00 19.7 6 Sudeste 14 Este 0 -- -- 62
2020-11-17 11:00:00 19 5 Sudeste 13 Sudeste 0 -- -- 70
2020-11-17 10:00:00 16.4 5 Este 9 Este 0 -- -- 84
2020-11-17 09:00:00 12.9 2 Sudoeste 7 Sudoeste 0 -- -- 96
2020-11-17 08:00:00 8.5 5 Sudoeste 6 Sudoeste 0 -- -- 95
2020-11-17 07:00:00 9 4 Noroeste 8 Sudoeste 0 -- -- 95
2020-11-17 06:00:00 9.6 4 Oeste 6 Sudoeste 0 -- -- 95
2020-11-17 05:00:00 9.3 3 Oeste 6 Noroeste 0 -- -- 93
2020-11-17 04:00:00 10.1 3 Oeste 6 Noroeste 0 -- -- 94
2020-11-17 03:00:00 10.6 3 Noroeste 8 Oeste 0 -- -- 92
2020-11-17 02:00:00 11.7 6 Oeste 9 Oeste 0 -- -- 92
2020-11-17 01:00:00 12 3 Noroeste 5 Noroeste 0 -- -- 91
2020-11-17 00:00:00 12.3 2 Noroeste 7 Nordeste 0 -- -- 89
2020-11-16 23:00:00 12.9 5 Norte 8 Norte 0 -- -- 87
2020-11-16 22:00:00 14.4 -- -- -- -- 0 -- -- 81
2020-11-16 21:00:00 14.6 5 Norte 9 Norte 0 -- -- 80
2020-11-16 20:00:00 15 6 Norte 10 Norte 0 -- -- 78
2020-11-16 19:00:00 14.4 6 Norte 10 Nordeste 0 -- -- 79
2020-11-16 18:00:00 15.3 -- -- -- -- 0 -- -- 74
2020-11-16 17:00:00 16.9 12 Nordeste 25 Este 0 -- -- 71
2020-11-16 16:00:00 18.1 15 Nordeste 31 Nordeste 0 -- -- 68
2020-11-16 15:00:00 19.5 16 Nordeste 33 Este 0 -- -- 62
2020-11-16 14:00:00 20.3 17 Este 32 Este 0 -- -- 57
2020-11-16 13:00:00 19.7 19 Nordeste 34 Nordeste 0 -- -- 65
2020-11-16 12:00:00 18.6 21 Nordeste 36 Nordeste 0 -- -- 71
2020-11-16 11:00:00 18.3 18 Nordeste 37 Nordeste 0 -- -- 77
2020-11-16 10:00:00 17.9 20 Nordeste 37 Nordeste 0 -- -- 85
2020-11-16 09:00:00 18.1 13 Nordeste 27 Nordeste 0 -- -- 88
2020-11-16 08:00:00 16.9 6 Nordeste 15 Oeste 0 -- -- 86
2020-11-16 07:00:00 18.9 11 Oeste 17 Oeste 0 -- -- 72
2020-11-16 06:00:00 18.6 11 Oeste 14 Oeste 0 -- -- 77
2020-11-16 05:00:00 18.3 8 Oeste 17 Sudoeste 0 -- -- 79
2020-11-16 04:00:00 19.1 13 Sudoeste 25 Sudoeste 0 -- -- 76
2020-11-16 03:00:00 18.2 17 Sudoeste 24 Sudoeste 0 -- -- 90
2020-11-16 02:00:00 17.5 8 Oeste 13 Sudoeste 0 -- -- 91
2020-11-16 01:00:00 17.3 10 Oeste 20 Oeste 0 -- -- 89
2020-11-16 00:00:00 17 14 Oeste 24 Oeste 0 -- -- 88
2020-11-15 23:00:00 17.1 12 Oeste 28 Oeste 0 -- -- 86
2020-11-15 22:00:00 17.6 15 Oeste 28 Oeste 0 -- -- 86
2020-11-15 21:00:00 17 15 Oeste 26 Sudoeste 0 -- -- 83
2020-11-15 20:00:00 17.1 14 Oeste 26 Sudoeste 0 -- -- 83
2020-11-15 19:00:00 17.4 15 Sudoeste 23 Sudoeste 0 -- -- 81
2020-11-15 18:00:00 17.7 15 Sudoeste 28 Sudoeste 0 -- -- 76
2020-11-15 17:00:00 19.3 20 Sudoeste 35 Sudoeste 0 -- -- 69
2020-11-15 16:00:00 20.8 24 Sudoeste 36 Sudoeste 0 -- -- 64
2020-11-15 15:00:00 21.2 -- -- -- -- 0 -- -- 68
2020-11-15 14:00:00 21.3 24 Sudoeste 39 Sudoeste 0 -- -- 66
2020-11-15 13:00:00 21.2 24 Sudoeste 34 Sudoeste 0 -- -- 68
2020-11-15 12:00:00 19.9 18 Sudoeste 30 Sudoeste 0 -- -- 77
2020-11-15 11:00:00 19.7 18 Sudoeste 26 Oeste 0 -- -- 80
2020-11-15 10:00:00 18.4 6 Sur 11 Sur 0 -- -- 87
2020-11-15 09:00:00 -- -- -- -- -- -- -- -- --
2020-11-15 08:00:00 13.3 8 Oeste 10 Oeste 0 -- -- 97
2020-11-15 07:00:00 11.5 4 Oeste 6 Oeste 0 -- -- 97
2020-11-15 06:00:00 12.4 4 Oeste 5 Oeste 0 -- -- 95
2020-11-15 05:00:00 13.5 5 Oeste 9 Oeste 0 -- -- 96
2020-11-15 04:00:00 13.6 0 Calma 4 Noroeste 0 -- -- 96
2020-11-15 03:00:00 14.5 3 Noroeste 4 Noroeste 0 -- -- 96
2020-11-15 02:00:00 15 2 Nordeste 3 Norte 0 -- -- 95
2020-11-15 01:00:00 15.4 0 Calma 4 Sudoeste 0 -- -- 94
2020-11-15 00:00:00 15.8 3 Sudoeste 4 Sudoeste 0 -- -- 94
2020-11-14 23:00:00 15.9 0 Calma 4 Sudoeste 0 -- -- 94
2020-11-14 22:00:00 16.2 0 Calma 5 Noroeste 0 -- -- 94
2020-11-14 21:00:00 16.3 4 Noroeste 8 Noroeste 0 -- -- 93
2020-11-14 20:00:00 16.6 0 Calma 5 Norte 0 -- -- 91
2020-11-14 19:00:00 17.3 4 Norte 5 Norte 0 -- -- 89
2020-11-14 18:00:00 18.1 3 Sudeste 9 Este 0 -- -- 86
2020-11-14 17:00:00 19.4 6 Este 14 Este 0 -- -- 81
2020-11-14 16:00:00 -- -- -- -- -- -- -- -- --
2020-11-14 15:00:00 21.9 3 Norte 8 Norte 0 -- -- 64
2020-11-14 14:00:00 21.8 5 Norte 8 Este 0 -- -- 63
2020-11-14 13:00:00 22.4 5 Nordeste 10 Nordeste 0 -- -- 65
2020-11-14 12:00:00 21.6 5 Sur 12 Este 0 -- -- 69
2020-11-14 11:00:00 21.8 5 Este 11 Sudeste 0 -- -- 73
2020-11-14 10:00:00 20.6 5 Este 10 Este 0 -- -- 80
2020-11-14 09:00:00 15.9 2 Este 7 Norte 0 -- -- 92
2020-11-14 08:00:00 13.8 7 Norte 9 Norte 0 -- -- 95
2020-11-14 07:00:00 13 0 Calma 4 Nordeste 0 -- -- 93
2020-11-14 06:00:00 13.5 3 Nordeste 5 Este 0 -- -- 91
2020-11-14 05:00:00 14.4 4 Norte 9 Noroeste 0 -- -- 90
2020-11-14 04:00:00 14.3 6 Norte 9 Norte 0 -- -- 90
2020-11-14 03:00:00 14.7 6 Norte 10 Norte 0 -- -- 89
2020-11-14 02:00:00 16 6 Norte 11 Norte 0 -- -- 91
2020-11-14 01:00:00 15.7 8 Norte 11 Norte 0 -- -- 93
2020-11-14 00:00:00 14.6 5 Nordeste 8 Nordeste 0 -- -- 93
2020-11-13 23:00:00 14.5 3 Este 12 Nordeste 0 -- -- 89
2020-11-13 22:00:00 15.1 7 Nordeste 11 Nordeste 0 -- -- 87
2020-11-13 21:00:00 15.1 6 Nordeste 11 Nordeste 0 -- -- 89
2020-11-13 20:00:00 15.3 7 Nordeste 12 Nordeste 0 -- -- 90
2020-11-13 19:00:00 16 6 Nordeste 10 Nordeste 0 -- -- 89
2020-11-13 18:00:00 17.4 8 Nordeste 13 Nordeste 0 -- -- 83
2020-11-13 17:00:00 19.9 8 Nordeste 17 Nordeste 0 -- -- 72
2020-11-13 16:00:00 21.2 9 Nordeste 20 Nordeste 0 -- -- 69
2020-11-13 15:00:00 21.9 11 Nordeste 21 Nordeste 0 -- -- 69
2020-11-13 14:00:00 22.5 8 Nordeste 19 Nordeste 0 -- -- 64
2020-11-13 13:00:00 22.3 8 Este 21 Nordeste 0 -- -- 67
2020-11-13 12:00:00 20.6 8 Nordeste 17 Este 0 -- -- 73
2020-11-13 11:00:00 19.9 8 Nordeste 16 Nordeste 0 -- -- 78
2020-11-13 10:00:00 18.1 6 Nordeste 10 Nordeste 0 -- -- 94
2020-11-13 09:00:00 12.7 0 Calma 4 Este 0 -- -- 97
2020-11-13 08:00:00 10.2 0 Calma 4 Norte 0 -- -- 97
2020-11-13 07:00:00 10.3 4 Norte 6 Norte 0 -- -- 97
2020-11-13 06:00:00 10.7 3 Sudoeste 5 Noroeste 0 -- -- 96
2020-11-13 05:00:00 10.2 2 Sur 6 Norte 0 -- -- 96
2020-11-13 04:00:00 10.8 0 Calma 4 Norte 0 -- -- 96
2020-11-13 03:00:00 11.1 0 Calma 5 Sudoeste 0 -- -- 95
2020-11-13 02:00:00 10.6 0 Calma 3 Sudeste 0 -- -- 95
2020-11-13 01:00:00 11 0 Calma 6 Noroeste 0 -- -- 93
2020-11-13 00:00:00 11.7 3 Norte 9 Noroeste 0 -- -- 93
2020-11-12 23:00:00 12.8 6 Norte 9 Noroeste 0 -- -- 92
2020-11-12 22:00:00 12.8 7 Norte 8 Noroeste 0 -- -- 91
2020-11-12 21:00:00 13.5 5 Norte 7 Nordeste 0 -- -- 88
2020-11-12 20:00:00 15.1 5 Norte 9 Nordeste 0 -- -- 84
2020-11-12 19:00:00 16 4 Norte 13 Nordeste 0 -- -- 81
2020-11-12 18:00:00 17.5 8 Nordeste 13 Nordeste 0 -- -- 75
2020-11-12 17:00:00 19 7 Este 17 Este 0 -- -- 70
2020-11-12 16:00:00 21.5 5 Nordeste 11 Este 0 -- -- 51
2020-11-12 15:00:00 21.3 6 Este 17 Este 0 -- -- 53
2020-11-12 14:00:00 21.9 8 Este 19 Sudeste 0 -- -- 49
2020-11-12 13:00:00 21.5 3 Norte 10 Nordeste 0 -- -- 46
2020-11-12 12:00:00 20.5 3 Norte 8 Sudeste 0 -- -- 57
2020-11-12 11:00:00 19.6 3 Este 6 Este 0 -- -- 69
2020-11-12 10:00:00 16.4 0 Calma 4 Noroeste 0 -- -- 91
2020-11-12 09:00:00 11.3 2 Sur 6 Sur 0 -- -- 97
2020-11-12 08:00:00 8 0 Calma 4 Noroeste 0 -- -- 98
2020-11-12 07:00:00 8.1 0 Calma 5 Sudoeste 0 -- -- 97
2020-11-12 06:00:00 8.7 4 Sur 8 Sur 0 -- -- 97
2020-11-12 05:00:00 9 0 Calma 5 Oeste 0 -- -- 96
2020-11-12 04:00:00 8.7 5 Sur 6 Sur 0 -- -- 97
2020-11-12 03:00:00 8.6 0 Calma 5 Sudoeste 0 -- -- 96
2020-11-12 02:00:00 9.3 5 Sudoeste 6 Sudoeste 0 -- -- 96
2020-11-12 01:00:00 9.6 5 Noroeste 6 Noroeste 0 -- -- 95
2020-11-12 00:00:00 10.1 3 Oeste 6 Noroeste 0 -- -- 92
2020-11-11 23:00:00 11.5 5 Noroeste 8 Noroeste 0 -- -- 93
2020-11-11 22:00:00 12.4 4 Noroeste 8 Noroeste 0 -- -- 91
2020-11-11 21:00:00 14.7 0 Calma 5 Sur 0 -- -- 85
2020-11-11 20:00:00 15.8 2 Sudoeste 5 Norte 0 -- -- 83
2020-11-11 19:00:00 16.8 3 Norte 7 Noroeste 0 -- -- 77
2020-11-11 18:00:00 17.6 0 Calma 15 Sudeste 0 -- -- 71
2020-11-11 17:00:00 18.9 6 Sudeste 11 Sudeste 0 -- -- 70
2020-11-11 16:00:00 18.8 8 Este 16 Este 0 -- -- 69
2020-11-11 15:00:00 21.8 8 Nordeste 20 Este 0 -- -- 59
2020-11-11 14:00:00 21.9 6 Este 13 Nordeste 0 -- -- 54
2020-11-11 13:00:00 18.7 5 Este 15 Este 0 -- -- 67
2020-11-11 12:00:00 19.9 8 Este 18 Este 0 -- -- 64
2020-11-11 11:00:00 19.5 8 Este 15 Este 0 -- -- 70
2020-11-11 10:00:00 17 0 Calma 4 Nordeste 0 -- -- 91
2020-11-11 09:00:00 12.8 0 Calma 5 Sudoeste 0 -- -- 95
2020-11-11 08:00:00 7.5 3 Sudoeste 4 Sudoeste 0 -- -- 98
2020-11-11 07:00:00 7.2 0 Calma 5 Sudoeste 0 -- -- 98
2020-11-11 06:00:00 7.3 0 Calma 4 Noroeste 0 -- -- 98
2020-11-11 05:00:00 7.4 3 Sudoeste 5 Sudoeste 0 -- -- 97
2020-11-11 04:00:00 7.6 2 Oeste 6 Noroeste 0 -- -- 97
2020-11-11 03:00:00 7.9 5 Noroeste 6 Noroeste 0 -- -- 97
2020-11-11 02:00:00 8.1 0 Calma 4 Noroeste 0 -- -- 97
2020-11-11 01:00:00 8.6 3 Sudoeste 8 Noroeste 0 -- -- 96
2020-11-11 00:00:00 9.4 2 Oeste 7 Noroeste 0 -- -- 96
2020-11-10 23:00:00 10.2 4 Noroeste 9 Noroeste 0 -- -- 95
2020-11-10 22:00:00 10.8 5 Noroeste 10 Noroeste 0 -- -- 95
2020-11-10 21:00:00 11.8 3 Noroeste 6 Noroeste 0 -- -- 94
2020-11-10 20:00:00 12.8 0 Calma 8 Sudeste 0 -- -- 91
2020-11-10 19:00:00 14.4 6 Sudeste 12 Este 0 -- -- 89
2020-11-10 18:00:00 15.9 7 Este 21 Nordeste 0 -- -- 84
2020-11-10 17:00:00 18.5 12 Este 23 Este 0 -- -- 73
2020-11-10 16:00:00 20.9 11 Este 23 Este 0 -- -- 62
2020-11-10 15:00:00 20.8 12 Este 23 Este 0 -- -- 63
2020-11-10 14:00:00 23.1 6 Este 14 Este 0 -- -- 54
2020-11-10 13:00:00 21.9 4 Este 12 Este 0 -- -- 59
2020-11-10 12:00:00 20.7 4 Sudeste 9 Sur 0 -- -- 67
2020-11-10 11:00:00 19.3 4 Sur 8 Sudoeste 0 -- -- 75
2020-11-10 10:00:00 17.2 3 Sudeste 4 Este 0 -- -- 93
2020-11-10 09:00:00 13.5 0 Calma 4 Noroeste 0 -- -- 96
2020-11-10 08:00:00 8.9 3 Noroeste 6 Oeste 0 -- -- 98
2020-11-10 07:00:00 8.9 4 Noroeste 6 Noroeste 0 -- -- 98
2020-11-10 06:00:00 8 3 Sudoeste 5 Noroeste 0 -- -- 97
2020-11-10 05:00:00 8.5 0 Calma 5 Noroeste 0 -- -- 98
2020-11-10 04:00:00 8.8 0 Calma 3 Nordeste 0 -- -- 97
2020-11-10 03:00:00 9.3 2 Oeste 5 Noroeste 0 -- -- 97
2020-11-10 02:00:00 10 2 Oeste 6 Sudoeste 0 -- -- 97
2020-11-10 01:00:00 10.3 3 Oeste 5 Oeste 0 -- -- 97
2020-11-10 00:00:00 10.9 2 Oeste 4 Oeste 0 -- -- 96
2020-11-09 23:00:00 11.9 2 Noroeste 4 Noroeste 0 -- -- 96
2020-11-09 22:00:00 12.7 2 Noroeste 4 Noroeste 0 -- -- 95
2020-11-09 21:00:00 13.5 3 Noroeste 4 Noroeste 0 -- -- 93
2020-11-09 20:00:00 15 0 Calma 6 Nordeste 0 -- -- 91
2020-11-09 19:00:00 16.5 5 Nordeste 9 Este 0 -- -- 87
2020-11-09 18:00:00 18.5 6 Este 9 Este 0 -- -- 76
2020-11-09 17:00:00 19.9 4 Sur 14 Sudeste 0 -- -- 71
2020-11-09 16:00:00 22.9 7 Este 15 Este 0 -- -- 64
2020-11-09 15:00:00 24 9 Este 14 Este 0 -- -- 58
2020-11-09 14:00:00 23.5 3 Sudoeste 10 Sudeste 0 -- -- 55
2020-11-09 13:00:00 22.4 4 Sudeste 12 Este 0 -- -- 58
2020-11-09 12:00:00 21.2 5 Este 10 Sudeste 0 -- -- 70
2020-11-09 11:00:00 19.4 2 Sudeste 5 Sur 0 -- -- 92
2020-11-09 10:00:00 16.3 0 Calma 5 Sur 0 -- -- 96
2020-11-09 09:00:00 13.9 0 Calma 5 Oeste 0 -- -- 98
2020-11-09 08:00:00 10.8 4 Oeste 5 Oeste 0 -- -- 98
2020-11-09 07:00:00 11.3 0 Calma 6 Noroeste 0.2 -- -- 98
2020-11-09 06:00:00 11.9 3 Noroeste 5 Oeste 0 -- -- 98
2020-11-09 05:00:00 12.7 3 Noroeste 7 Noroeste 0 -- -- 97
2020-11-09 04:00:00 11.3 4 Noroeste 6 Sur 0 -- -- 97
2020-11-09 03:00:00 11 3 Sur 6 Noroeste 0 -- -- 97
2020-11-09 02:00:00 11.3 6 Oeste 8 Oeste 0 -- -- 97
2020-11-09 01:00:00 11.3 2 Oeste 6 Noroeste 0 -- -- 96
2020-11-09 00:00:00 11.2 2 Oeste 3 Oeste 0 -- -- 96
2020-11-08 23:00:00 12.2 0 Calma 4 Noroeste 0 -- -- 95
2020-11-08 22:00:00 13 0 Calma 8 Noroeste 0 -- -- 95
2020-11-08 21:00:00 13.7 3 Noroeste 6 Noroeste 0 -- -- 95
2020-11-08 20:00:00 14.7 0 Calma 3 Norte 0 -- -- 93
2020-11-08 19:00:00 15.8 2 Nordeste 7 Norte 0 -- -- 90
2020-11-08 18:00:00 17.2 3 Nordeste 7 Este 0 -- -- 86
2020-11-08 17:00:00 19.1 2 Este 15 Sudoeste 0 -- -- 79
2020-11-08 16:00:00 20.5 12 Sudoeste 17 Oeste 0 -- -- 73
2020-11-08 15:00:00 21.6 11 Sudoeste 16 Sudoeste 0 -- -- 64
2020-11-08 14:00:00 22.8 6 Sudoeste 18 Sudoeste 0 -- -- 58
2020-11-08 13:00:00 22 8 Sur 14 Sudoeste 0 -- -- 64
2020-11-08 12:00:00 21.1 6 Sudoeste 14 Sudoeste 0 -- -- 69
2020-11-08 11:00:00 20.2 10 Sur 14 Sudoeste 0 -- -- 80
2020-11-08 10:00:00 18.5 3 Sudoeste 7 Sur 0 -- -- 90
2020-11-08 09:00:00 13.5 2 Sudoeste 6 Sur 0 -- -- 96
2020-11-08 08:00:00 9.9 4 Noroeste 7 Noroeste 0 -- -- 98
2020-11-08 07:00:00 9.4 5 Sur 6 Sur 0 -- -- 97
2020-11-08 06:00:00 9.6 3 Noroeste 7 Sudoeste 0 -- -- 98
2020-11-08 05:00:00 9.8 4 Oeste 5 Oeste 0 -- -- 98
2020-11-08 04:00:00 10.3 3 Oeste 5 Oeste 0 -- -- 97
2020-11-08 03:00:00 10.8 2 Noroeste 5 Sudoeste 0 -- -- 97
2020-11-08 02:00:00 11.5 0 Calma 6 Norte 0 -- -- 97
2020-11-08 01:00:00 12.2 4 Noroeste 8 Noroeste 0 -- -- 96
2020-11-08 00:00:00 13.8 4 Noroeste 10 Sudoeste 0 -- -- 95
2020-11-07 23:00:00 14.7 7 Sudoeste 10 Sudoeste 0 -- -- 94
2020-11-07 22:00:00 14.9 8 Sudoeste 10 Sudoeste 0 -- -- 94
2020-11-07 21:00:00 15 8 Sur 10 Sur 0 -- -- 92
2020-11-07 20:00:00 15.5 6 Noroeste 9 Noroeste 0 -- -- 89
2020-11-07 19:00:00 17.2 7 Oeste 10 Oeste 0 -- -- 84
2020-11-07 18:00:00 18.7 5 Oeste 14 Sur 0 -- -- 77
2020-11-07 17:00:00 21.4 7 Sudoeste 13 Sudoeste 0 -- -- 70
2020-11-07 16:00:00 22.9 4 Sudoeste 11 Sudoeste 0 -- -- 64
2020-11-07 15:00:00 22.5 4 Sudoeste 12 Noroeste 0 -- -- 65
2020-11-07 14:00:00 20.9 8 Oeste 14 Noroeste 0 -- -- 72
2020-11-07 13:00:00 17.5 2 Norte 17 Sudoeste 0.8 -- -- 93
2020-11-07 12:00:00 16.8 12 Sudoeste 19 Sudoeste 5.4 -- -- 90
2020-11-07 11:00:00 16.9 7 Oeste 36 Sudoeste 1.8 -- -- 89
2020-11-07 10:00:00 19 15 Sudoeste 42 Sudoeste 0 -- -- 77
2020-11-07 09:00:00 18.2 3 Oeste 10 Este 0 -- -- 94
2020-11-07 08:00:00 17.8 7 Este 9 Este 0 -- -- 93
2020-11-07 07:00:00 18.3 4 Este 9 Nordeste 0.2 -- -- 92
2020-11-07 06:00:00 18.7 10 Nordeste 18 Norte 0 -- -- 91
2020-11-07 05:00:00 18.7 5 Norte 12 Nordeste 0 -- -- 90
2020-11-07 04:00:00 18.8 8 Nordeste 17 Nordeste 0 -- -- 90
2020-11-07 03:00:00 18.7 12 Nordeste 19 Nordeste 0 -- -- 90
2020-11-07 02:00:00 18.7 12 Nordeste 20 Nordeste 0 -- -- 90
2020-11-07 01:00:00 18.8 12 Nordeste 20 Nordeste 0 -- -- 89
2020-11-07 00:00:00 18.9 10 Nordeste 19 Nordeste 0 -- -- 87
2020-11-06 23:00:00 19.2 11 Nordeste 22 Nordeste 0 -- -- 87
2020-11-06 22:00:00 19.4 11 Nordeste 24 Nordeste 0 -- -- 85
2020-11-06 21:00:00 19.4 12 Nordeste 23 Nordeste 0 -- -- 85
2020-11-06 20:00:00 19.5 12 Nordeste 22 Nordeste 0 -- -- 85
2020-11-06 19:00:00 19.6 11 Nordeste 19 Nordeste 0 -- -- 85
2020-11-06 18:00:00 19.8 9 Este 22 Este 0 -- -- 82
2020-11-06 17:00:00 20.7 10 Este 27 Este 0 -- -- 79
2020-11-06 16:00:00 21.7 12 Este 24 Este 0 -- -- 75
2020-11-06 15:00:00 22.3 14 Este 25 Este 0 -- -- 72
2020-11-06 14:00:00 23.1 14 Este 26 Este 0 -- -- 70
2020-11-06 13:00:00 21.9 13 Este 26 Este 0 -- -- 75
2020-11-06 12:00:00 22.1 14 Este 26 Este 0 -- -- 75
2020-11-06 11:00:00 20.7 12 Este 23 Este 0 -- -- 80
2020-11-06 10:00:00 20.1 13 Nordeste 21 Nordeste 0 -- -- 83
2020-11-06 09:00:00 19.2 11 Nordeste 19 Nordeste 0 -- -- 86
2020-11-06 08:00:00 18.7 11 Nordeste 19 Nordeste 0 -- -- 87
2020-11-06 07:00:00 18.5 11 Nordeste 18 Nordeste 0 -- -- 87
2020-11-06 06:00:00 18.4 8 Nordeste 18 Nordeste 0 -- -- 86
2020-11-06 05:00:00 18.7 10 Nordeste 18 Nordeste 0 -- -- 85
2020-11-06 04:00:00 18.7 11 Nordeste 22 Nordeste 0 -- -- 85
2020-11-06 03:00:00 18.7 8 Nordeste 18 Nordeste 0 -- -- 85
2020-11-06 02:00:00 18.6 9 Nordeste 18 Nordeste 0 -- -- 85
2020-11-06 01:00:00 18.6 10 Nordeste 18 Este 0 -- -- 86
2020-11-06 00:00:00 18.6 12 Nordeste 21 Nordeste 0 -- -- 85
2020-11-05 23:00:00 18.5 11 Nordeste 24 Norte 0 -- -- 85
2020-11-05 22:00:00 18.4 13 Nordeste 22 Nordeste 0 -- -- 85
2020-11-05 21:00:00 18.3 12 Nordeste 26 Nordeste 0 -- -- 86
2020-11-05 20:00:00 18.3 15 Nordeste 22 Nordeste 0 -- -- 85
2020-11-05 19:00:00 18.4 13 Nordeste 22 Nordeste 0 -- -- 84
2020-11-05 18:00:00 18.4 8 Nordeste 20 Este 0 -- -- 83
2020-11-05 17:00:00 19.2 9 Nordeste 25 Nordeste 0 -- -- 79
2020-11-05 16:00:00 19.4 14 Nordeste 25 Nordeste 0 -- -- 77
2020-11-05 15:00:00 19.7 12 Este 27 Este 0 -- -- 75
2020-11-05 14:00:00 20 14 Este 29 Este 0 -- -- 71
2020-11-05 13:00:00 20.3 18 Este 35 Nordeste 0 -- -- 69
2020-11-05 12:00:00 19.8 15 Nordeste 33 Nordeste 0 -- -- 77
2020-11-05 11:00:00 20.3 13 Nordeste 30 Nordeste 0 -- -- 77
2020-11-05 10:00:00 18.9 17 Nordeste 31 Nordeste 0 -- -- 81
2020-11-05 09:00:00 17.9 17 Nordeste 27 Nordeste 0 -- -- 83
2020-11-05 08:00:00 17.2 15 Nordeste 30 Este 0 -- -- 84
2020-11-05 07:00:00 16.8 17 Nordeste 30 Nordeste 0 -- -- 85
2020-11-05 06:00:00 16.6 15 Nordeste 24 Nordeste 0 -- -- 87
2020-11-05 05:00:00 16.1 16 Nordeste 27 Nordeste 0 -- -- 87
2020-11-05 04:00:00 15.9 14 Nordeste 21 Nordeste 0 -- -- 86
2020-11-05 03:00:00 15.6 12 Nordeste 23 Nordeste 0 -- -- 84
2020-11-05 02:00:00 15.8 13 Nordeste 24 Norte 0 -- -- 82
2020-11-05 01:00:00 16 13 Nordeste 26 Nordeste 0 -- -- 80
2020-11-05 00:00:00 15.9 14 Nordeste 32 Nordeste 0 -- -- 81
2020-11-04 23:00:00 15.8 20 Nordeste 32 Nordeste 0 -- -- 80
2020-11-04 22:00:00 15.9 17 Nordeste 32 Nordeste 0 -- -- 79
2020-11-04 21:00:00 15.9 18 Nordeste 34 Nordeste 0 -- -- 78
2020-11-04 20:00:00 15.9 15 Nordeste 33 Nordeste 0 -- -- 77
2020-11-04 19:00:00 16 18 Nordeste 41 Nordeste 0 -- -- 77
2020-11-04 18:00:00 -- -- -- -- -- -- -- -- --
2020-11-04 17:00:00 16.4 21 Nordeste 42 Nordeste 0 -- -- 78
2020-11-04 16:00:00 16.8 19 Nordeste 39 Nordeste 0 -- -- 79
2020-11-04 15:00:00 17 23 Nordeste 40 Nordeste 0 -- -- 78
2020-11-04 14:00:00 17.1 19 Nordeste 35 Nordeste 0 -- -- 78
2020-11-04 13:00:00 17.9 19 Nordeste 35 Este 0 -- -- 75
2020-11-04 12:00:00 17.8 19 Nordeste 34 Este 0 -- -- 76
2020-11-04 11:00:00 18.5 20 Este 34 Este 0 -- -- 73
2020-11-04 10:00:00 18.1 17 Nordeste 30 Nordeste 0 -- -- 79
2020-11-04 09:00:00 15.6 9 Nordeste 15 Nordeste 0 -- -- 91
2020-11-04 08:00:00 15 9 Nordeste 17 Nordeste 0 -- -- 92
2020-11-04 07:00:00 14.9 11 Nordeste 17 Nordeste 0.4 -- -- 91
2020-11-04 06:00:00 15.3 5 Nordeste 15 Nordeste 0 -- -- 87
2020-11-04 05:00:00 15.3 10 Nordeste 17 Nordeste 0 -- -- 84
2020-11-04 04:00:00 15.6 10 Nordeste 18 Nordeste 0 -- -- 82
2020-11-04 03:00:00 15.7 10 Nordeste 24 Nordeste 0 -- -- 80
2020-11-04 02:00:00 16 13 Nordeste 26 Nordeste 0 -- -- 76
2020-11-04 01:00:00 16.3 15 Nordeste 28 Nordeste 0 -- -- 80
2020-11-04 00:00:00 16.7 13 Nordeste 22 Nordeste 0 -- -- 81
2020-11-03 23:00:00 16.7 15 Nordeste 22 Nordeste 0 -- -- 80
2020-11-03 22:00:00 16.6 13 Nordeste 23 Nordeste 0 -- -- 82
2020-11-03 21:00:00 16.8 10 Nordeste 23 Nordeste 0 -- -- 83
2020-11-03 20:00:00 16.7 8 Nordeste 25 Nordeste 0 -- -- 79
2020-11-03 19:00:00 17.7 9 Nordeste 16 Nordeste 0 -- -- 75
2020-11-03 18:00:00 18 9 Nordeste 21 Nordeste 0 -- -- 72
2020-11-03 17:00:00 19.1 12 Nordeste 24 Nordeste 0 -- -- 69
2020-11-03 16:00:00 20.4 12 Nordeste 22 Este 0 -- -- 65
2020-11-03 15:00:00 23 10 Este 23 Nordeste 0 -- -- 60
2020-11-03 14:00:00 23.3 9 Este 18 Este 0 -- -- 58
2020-11-03 13:00:00 22 8 Este 18 Este 0 -- -- 61
2020-11-03 12:00:00 21.3 9 Este 15 Sudeste 0 -- -- 67
2020-11-03 11:00:00 20.5 6 Este 12 Este 0 -- -- 68
2020-11-03 10:00:00 19.3 3 Sudeste 6 Sudeste 0 -- -- 74
2020-11-03 09:00:00 16.6 2 Sudoeste 4 Sur 0 -- -- 93
2020-11-03 08:00:00 12.5 0 Calma 2 Noroeste 0 -- -- 96
2020-11-03 07:00:00 11.7 -- -- -- -- 0 -- -- 96
2020-11-03 06:00:00 11.7 0 Calma 7 Noroeste 0 -- -- 96
2020-11-03 05:00:00 11 6 Oeste 11 Oeste 0 -- -- 96
2020-11-03 04:00:00 9.3 2 Noroeste 4 Noroeste 0 -- -- 95
2020-11-03 03:00:00 10.4 0 Calma 4 Nordeste 0 -- -- 94
2020-11-03 02:00:00 12.1 3 Norte 8 Norte 0 -- -- 93
2020-11-03 01:00:00 14.2 0 Calma 8 Oeste 0 -- -- 92
2020-11-03 00:00:00 14.8 5 Oeste 9 Oeste 0 -- -- 92
2020-11-02 23:00:00 13.6 6 Oeste 10 Oeste 0 -- -- 95
2020-11-02 22:00:00 12.4 4 Oeste 8 Oeste 0 -- -- 93
2020-11-02 21:00:00 13.4 4 Oeste 9 Oeste 0 -- -- 92
2020-11-02 20:00:00 14.7 6 Oeste 9 Oeste 0 -- -- 89
2020-11-02 19:00:00 16.1 7 Oeste 14 Sudoeste 0 -- -- 86
2020-11-02 18:00:00 17.6 10 Sudoeste 19 Sudoeste 0 -- -- 80
2020-11-02 17:00:00 20 12 Sudoeste 20 Sudoeste 0 -- -- 71
2020-11-02 16:00:00 21.1 14 Oeste 24 Sudoeste 0 -- -- 66
2020-11-02 15:00:00 22 15 Sudoeste 22 Sudoeste 0 -- -- 62
2020-11-02 14:00:00 22.2 14 Sudoeste 23 Sudoeste 0 -- -- 61
2020-11-02 13:00:00 21.4 15 Sudoeste 23 Sudoeste 0 -- -- 64
2020-11-02 12:00:00 20.7 14 Sudoeste 24 Sudoeste 0 -- -- 70
2020-11-02 11:00:00 19.6 17 Sudoeste 24 Sudoeste 0 -- -- 76
2020-11-02 10:00:00 18.7 15 Sudoeste 22 Sudoeste 0 -- -- 82
2020-11-02 09:00:00 16.2 8 Sudoeste 13 Sudoeste 0 -- -- 94
2020-11-02 08:00:00 11.4 7 Oeste 9 Oeste 0 -- -- 97
2020-11-02 07:00:00 10.8 7 Oeste 10 Sudoeste 0.2 -- -- 97
2020-11-02 06:00:00 11.5 6 Sudoeste 11 Sudoeste 0 -- -- 96
2020-11-02 05:00:00 11.8 9 Sudoeste 12 Sudoeste 0 -- -- 98
2020-11-02 04:00:00 11.1 8 Sudoeste 10 Sudoeste 0 -- -- 96
2020-11-02 03:00:00 11.8 9 Sudoeste 10 Sudoeste 0 -- -- 97
2020-11-02 02:00:00 12.4 8 Sudoeste 12 Oeste 0 -- -- 96
2020-11-02 01:00:00 12.7 9 Sudoeste 10 Sudoeste 0 -- -- 96
2020-11-02 00:00:00 12.8 7 Sudoeste 10 Sudoeste 0 -- -- 95
2020-11-01 23:00:00 13.3 6 Oeste 9 Oeste 0 -- -- 95
2020-11-01 22:00:00 14 6 Oeste 10 Oeste 0 -- -- 93
2020-11-01 21:00:00 14.4 7 Oeste 9 Oeste 0 -- -- 93
2020-11-01 20:00:00 15 5 Oeste 9 Oeste 0 -- -- 90
2020-11-01 19:00:00 16.2 7 Sudoeste 13 Sudoeste 0 -- -- 87
2020-11-01 18:00:00 17.9 10 Sudoeste 20 Sudoeste 0 -- -- 81
2020-11-01 17:00:00 19.9 15 Sudoeste 24 Sudoeste 0 -- -- 73
2020-11-01 16:00:00 21 15 Sudoeste 24 Sudoeste 0 -- -- 70
2020-11-01 15:00:00 21.8 15 Sudoeste 23 Sudoeste 0 -- -- 67
2020-11-01 14:00:00 22 15 Sudoeste 22 Sudoeste 0 -- -- 66
2020-11-01 13:00:00 21.8 14 Sudoeste 22 Sudoeste 0 -- -- 66
2020-11-01 12:00:00 20.9 12 Sudoeste 25 Sudoeste 0 -- -- 68
2020-11-01 11:00:00 19.9 15 Sudoeste 22 Sudoeste 0 -- -- 73
2020-11-01 10:00:00 18.2 11 Sudoeste 17 Oeste 0 -- -- 87
2020-11-01 09:00:00 13.5 3 Sudoeste 4 Sudoeste 0 -- -- 96
2020-11-01 08:00:00 8.6 3 Oeste 7 Noroeste 0 -- -- 99
2020-11-01 07:00:00 7 4 Noroeste 5 Noroeste 0 -- -- 98
2020-11-01 06:00:00 7 0 Calma 5 Este 0 -- -- 98
2020-11-01 05:00:00 8.7 0 Calma 9 Oeste 0 -- -- 98
2020-11-01 04:00:00 8.7 5 Oeste 8 Sudoeste 0 -- -- 97
2020-11-01 03:00:00 9.1 3 Noroeste 9 Noroeste 0 -- -- 97
2020-11-01 02:00:00 8.9 2 Oeste 6 Sur 0 -- -- 96
2020-11-01 01:00:00 9.7 6 Oeste 8 Oeste 0 -- -- 96
2020-11-01 00:00:00 10.2 0 Calma 5 Sudeste 0 -- -- 95
2020-10-31 23:00:00 11.2 2 Norte 7 Oeste 0 -- -- 94
2020-10-31 22:00:00 12.8 5 Oeste 9 Oeste 0 -- -- 93
2020-10-31 21:00:00 13.8 7 Oeste 9 Oeste 0 -- -- 91
2020-10-31 20:00:00 15.2 6 Oeste 10 Oeste 0 -- -- 89
2020-10-31 19:00:00 16.2 8 Oeste 12 Sudoeste 0 -- -- 85
2020-10-31 18:00:00 17.9 9 Sudoeste 18 Sudoeste 0 -- -- 78
2020-10-31 17:00:00 20.3 15 Sudoeste 21 Sudoeste 0 -- -- 69
2020-10-31 16:00:00 21.8 13 Sudoeste 19 Sudoeste 0 -- -- 62
2020-10-31 15:00:00 22.7 14 Sudoeste 23 Sudoeste 0 -- -- 51
2020-10-31 14:00:00 23.3 13 Sudoeste 22 Sudoeste 0 -- -- 48
2020-10-31 13:00:00 22.6 11 Sudoeste 19 Sudoeste 0 -- -- 52
2020-10-31 12:00:00 22.2 11 Sudoeste 20 Sudoeste 0 -- -- 54
2020-10-31 11:00:00 20.9 12 Oeste 21 Oeste 0 -- -- 58
2020-10-31 10:00:00 19.1 9 Sudoeste 13 Oeste 0 -- -- 78
2020-10-31 09:00:00 13.5 3 Sudoeste 5 Sudoeste 0 -- -- 94
2020-10-31 08:00:00 8.4 5 Oeste 5 Sudoeste 0 -- -- 98
2020-10-31 07:00:00 7.4 4 Oeste 6 Oeste 0 -- -- 97
2020-10-31 06:00:00 7.9 4 Sudoeste 5 Noroeste 0 -- -- 97
2020-10-31 05:00:00 8.1 3 Oeste 4 Oeste 0 -- -- 97
2020-10-31 04:00:00 8.6 2 Oeste 4 Oeste 0 -- -- 97
2020-10-31 03:00:00 9.5 3 Sur 8 Sudoeste 0 -- -- 97
2020-10-31 02:00:00 9.8 6 Sudoeste 8 Sudoeste 0 -- -- 96
2020-10-31 01:00:00 10.8 4 Sudoeste 7 Sudoeste 0 -- -- 96
2020-10-31 00:00:00 11.7 5 Sudoeste 10 Oeste 0 -- -- 95
2020-10-30 23:00:00 13.5 8 Oeste 10 Oeste 0 -- -- 94
2020-10-30 22:00:00 13.9 8 Oeste 10 Oeste 0 -- -- 95
2020-10-30 21:00:00 13.9 5 Oeste 8 Oeste 0 -- -- 94
2020-10-30 20:00:00 15.4 6 Oeste 8 Oeste 0 -- -- 92
2020-10-30 19:00:00 17.1 4 Oeste 13 Oeste 0 -- -- 87
2020-10-30 18:00:00 18.9 9 Sudoeste 15 Sudoeste 0 -- -- 75
2020-10-30 17:00:00 21.4 10 Sudoeste 18 Sudoeste 0 -- -- 64
2020-10-30 16:00:00 22.4 12 Sudoeste 22 Sudoeste 0 -- -- 61
2020-10-30 15:00:00 22.6 15 Sudoeste 23 Sudoeste 0 -- -- 61
2020-10-30 14:00:00 23.1 15 Sudoeste 23 Sudoeste 0 -- -- 57
2020-10-30 13:00:00 23.3 13 Sudoeste 20 Sudoeste 0 -- -- 58
2020-10-30 12:00:00 22.5 7 Oeste 18 Oeste 0 -- -- 61
2020-10-30 11:00:00 21.2 9 Sudoeste 15 Sudoeste 0 -- -- 67
2020-10-30 10:00:00 19.7 2 Sur 5 Oeste 0 -- -- 73
2020-10-30 09:00:00 14.7 0 Calma 5 Oeste 0 -- -- 93
2020-10-30 08:00:00 8.8 0 Calma 3 Noroeste 0 -- -- 98
2020-10-30 07:00:00 8.1 0 Calma 5 Sur 0 -- -- 97
2020-10-30 06:00:00 8.1 0 Calma 6 Sudoeste 0 -- -- 97
2020-10-30 05:00:00 8.6 3 Noroeste 5 Noroeste 0 -- -- 96
2020-10-30 04:00:00 9 0 Calma 8 Oeste 0 -- -- 96
2020-10-30 03:00:00 9.6 5 Sudoeste 6 Sudoeste 0 -- -- 96
2020-10-30 02:00:00 9.5 3 Oeste 6 Sudoeste 0 -- -- 95
2020-10-30 01:00:00 10.9 0 Calma 9 Sudoeste 0 -- -- 95
2020-10-30 00:00:00 11.7 7 Sudoeste 8 Sudoeste 0 -- -- 95
2020-10-29 23:00:00 11.5 0 Calma 6 Oeste 0 -- -- 93
2020-10-29 22:00:00 12.1 4 Noroeste 6 Noroeste 0 -- -- 92
2020-10-29 21:00:00 13.6 3 Sudoeste 6 Noroeste 0 -- -- 91
2020-10-29 20:00:00 14.8 3 Noroeste 6 Noroeste 0 -- -- 86
2020-10-29 19:00:00 16.3 4 Oeste 9 Sudoeste 0 -- -- 83
2020-10-29 18:00:00 18.4 7 Sudoeste 19 Sudoeste 0 -- -- 75
2020-10-29 17:00:00 20.2 15 Sudoeste 23 Sudoeste 0 -- -- 67
2020-10-29 16:00:00 21.9 14 Sudoeste 23 Sudoeste 0 -- -- 62
2020-10-29 15:00:00 23 14 Sudoeste 20 Oeste 0 -- -- 57
2020-10-29 14:00:00 21.9 0 Calma 10 Oeste 0 -- -- 56
2020-10-29 13:00:00 22.5 6 Sur 15 Sur 0 -- -- 55
2020-10-29 12:00:00 22 4 Nordeste 12 Sudeste 0 -- -- 59
2020-10-29 11:00:00 21.6 5 Este 15 Este 0 -- -- 64
2020-10-29 10:00:00 19.9 4 Este 8 Este 0 -- -- 70
2020-10-29 09:00:00 16.3 0 Calma 4 Oeste 0 -- -- 90
2020-10-29 08:00:00 9.4 3 Oeste 5 Oeste 0 -- -- 94
2020-10-29 07:00:00 7.9 3 Sudoeste 5 Sudoeste 0 -- -- 94
2020-10-29 06:00:00 8.8 4 Noroeste 9 Noroeste 0 -- -- 93
2020-10-29 05:00:00 8.3 3 Sudoeste 8 Noroeste 0 -- -- 92
2020-10-29 04:00:00 8.9 0 Calma 6 Sudoeste 0 -- -- 92
2020-10-29 03:00:00 9.3 3 Sudoeste 6 Norte 0 -- -- 92
2020-10-29 02:00:00 9.5 6 Noroeste 7 Noroeste 0 -- -- 92
2020-10-29 01:00:00 9.8 0 Calma 7 Noroeste 0 -- -- 91
2020-10-29 00:00:00 10.8 5 Noroeste 7 Noroeste 0 -- -- 90
2020-10-28 23:00:00 13 0 Calma 10 Oeste 0 -- -- 88
2020-10-28 22:00:00 14.7 7 Oeste 10 Oeste 0 -- -- 87
2020-10-28 21:00:00 14.5 6 Oeste 9 Oeste 0 -- -- 85
2020-10-28 20:00:00 -- -- -- -- -- -- -- -- --
2020-10-28 19:00:00 16.9 6 Sudoeste 19 Sudoeste 0 -- -- 75
2020-10-28 18:00:00 18.2 13 Sudoeste 22 Sudoeste 0 -- -- 71
2020-10-28 17:00:00 19.5 13 Sudoeste 25 Sudoeste 0 -- -- 62
2020-10-28 16:00:00 20.7 16 Sudoeste 26 Sudoeste 0 -- -- 57
2020-10-28 15:00:00 21.8 16 Sudoeste 28 Sudoeste 0 -- -- 51
2020-10-28 14:00:00 22.2 19 Sudoeste 26 Sudoeste 0 -- -- 43
2020-10-28 13:00:00 22.2 15 Sudoeste 24 Sudoeste 0 -- -- 45
2020-10-28 12:00:00 21.3 15 Sudoeste 22 Sudoeste 0 -- -- 52
2020-10-28 11:00:00 20.7 14 Oeste 21 Oeste 0 -- -- 57
2020-10-28 10:00:00 18.8 5 Sur 8 Sur 0 -- -- 61
2020-10-28 09:00:00 13.8 2 Sudoeste 4 Sudoeste 0 -- -- 78
2020-10-28 08:00:00 9.1 0 Calma 6 Noroeste 0 -- -- 90
2020-10-28 07:00:00 7.4 5 Sudoeste 7 Sudoeste 0 -- -- 90
2020-10-28 06:00:00 7.2 3 Sur 5 Sur 0 -- -- 88
2020-10-28 05:00:00 7.7 3 Sudoeste 12 Noroeste 0 -- -- 86
2020-10-28 04:00:00 9.1 6 Oeste 10 Oeste 0 -- -- 83
2020-10-28 03:00:00 10.1 2 Este 13 Oeste 0 -- -- 74
2020-10-28 02:00:00 11.6 10 Oeste 17 Sudoeste 0 -- -- 75
2020-10-28 01:00:00 10.6 10 Sudoeste 11 Oeste 0 -- -- 79
2020-10-28 00:00:00 10.5 7 Sudoeste 12 Oeste 0 -- -- 76
2020-10-27 23:00:00 11.7 10 Oeste 13 Oeste 0 -- -- 74
2020-10-27 22:00:00 12.2 8 Oeste 15 Oeste 0 -- -- 72
2020-10-27 21:00:00 12.6 11 Oeste 14 Oeste 0 -- -- 73
2020-10-27 20:00:00 12.6 6 Oeste 11 Sudoeste 0 -- -- 69
2020-10-27 19:00:00 -- -- -- -- -- -- -- -- --
2020-10-27 18:00:00 16.2 8 Oeste 21 Sudoeste 0 -- -- 55
2020-10-27 17:00:00 18.2 13 Sudoeste 24 Sudoeste 0 -- -- 50
2020-10-27 16:00:00 19.1 18 Sudoeste 24 Oeste 0 -- -- 47
2020-10-27 15:00:00 19.4 13 Oeste 20 Noroeste 0 -- -- 43
2020-10-27 14:00:00 19 9 Noroeste 23 Oeste 0 -- -- 46
2020-10-27 13:00:00 18.8 9 Noroeste 27 Noroeste 0 -- -- 46
2020-10-27 12:00:00 18.2 16 Noroeste 28 Noroeste 0 -- -- 49
2020-10-27 11:00:00 18 7 Noroeste 25 Noroeste 0 -- -- 50
2020-10-27 10:00:00 17.4 11 Noroeste 21 Noroeste 0 -- -- 53
2020-10-27 09:00:00 16.8 13 Oeste 22 Oeste 0 -- -- 55
2020-10-27 08:00:00 13.9 13 Sudoeste 16 Sudoeste 0 -- -- 62
2020-10-27 07:00:00 11.2 5 Sur 18 Sur 0 -- -- 68
2020-10-27 06:00:00 12.4 7 Sudoeste 15 Oeste 0 -- -- 64
2020-10-27 05:00:00 13.6 8 Sudoeste 37 Noroeste 0 -- -- 61
2020-10-27 04:00:00 15.5 19 Noroeste 45 Norte 0 -- -- 52
2020-10-27 03:00:00 15.8 18 Noroeste 37 Norte 0 -- -- 50
2020-10-27 02:00:00 15.7 22 Noroeste 33 Noroeste 0 -- -- 53
2020-10-27 01:00:00 16.1 22 Noroeste 42 Noroeste 0 -- -- 51
2020-10-27 00:00:00 16 17 Noroeste 32 Noroeste 0 -- -- 50
2020-10-26 23:00:00 16.5 14 Noroeste 31 Noroeste 0 -- -- 49
2020-10-26 22:00:00 16 11 Noroeste 32 Oeste 0 -- -- 53
2020-10-26 21:00:00 16.4 17 Noroeste 30 Noroeste 0 -- -- 51
2020-10-26 20:00:00 16 10 Oeste 23 Oeste 0 -- -- 51
2020-10-26 19:00:00 15.9 11 Oeste 33 Oeste 0 -- -- 51
2020-10-26 18:00:00 16.4 19 Noroeste 38 Oeste 0 -- -- 49
2020-10-26 17:00:00 16.1 16 Noroeste 37 Noroeste 0 -- -- 54
2020-10-26 16:00:00 17.2 22 Noroeste 39 Oeste 0 -- -- 51
2020-10-26 15:00:00 17.7 16 Noroeste 40 Oeste 0 -- -- 51
2020-10-26 14:00:00 17.4 21 Noroeste 44 Noroeste 0 -- -- 53
2020-10-26 13:00:00 16.9 22 Noroeste 48 Noroeste 0 -- -- 55
2020-10-26 12:00:00 16.6 24 Noroeste 37 Noroeste 0 -- -- 59
2020-10-26 11:00:00 15.7 21 Noroeste 34 Noroeste 0 -- -- 63
2020-10-26 10:00:00 15.4 18 Noroeste 27 Oeste 0.2 -- -- 73
2020-10-26 09:00:00 15.3 5 Sudoeste 22 Oeste 0.2 -- -- 83
2020-10-26 08:00:00 16.1 8 Noroeste 28 Noroeste 0 -- -- 74
2020-10-26 07:00:00 15.9 6 Oeste 31 Oeste 0.2 -- -- 87
2020-10-26 06:00:00 18.2 10 Oeste 22 Oeste 0 -- -- 73
2020-10-26 05:00:00 16.9 9 Sudoeste 17 Oeste 0 -- -- 88
2020-10-26 04:00:00 17.4 9 Sudoeste 21 Sudoeste 0 -- -- 89
2020-10-26 03:00:00 17.7 14 Sudoeste 27 Sudoeste 0 -- -- 87
2020-10-26 02:00:00 18.4 18 Sudoeste 31 Sudoeste 0 -- -- 83
2020-10-26 01:00:00 18.4 16 Sudoeste 24 Sudoeste 0 -- -- 83
2020-10-26 00:00:00 18.1 12 Oeste 22 Oeste 0 -- -- 84